sensor_id;sensor_type;location;lat;lon;timestamp;P1;durP1;ratioP1;P2;durP2;ratioP2
20008;SDS011;10165;42.662;23.260;2023-08-01T00:00:49;2.23;;;1.80;;
20008;SDS011;10165;42.662;23.260;2023-08-01T00:03:17;2.00;;;1.90;;
20008;SDS011;10165;42.662;23.260;2023-08-01T00:05:45;2.53;;;1.50;;
20008;SDS011;10165;42.662;23.260;2023-08-01T00:08:12;3.33;;;1.60;;
20008;SDS011;10165;42.662;23.260;2023-08-01T00:10:41;2.20;;;1.73;;
20008;SDS011;10165;42.662;23.260;2023-08-01T00:13:09;2.20;;;2.00;;
20008;SDS011;10165;42.662;23.260;2023-08-01T00:15:36;2.23;;;1.87;;
20008;SDS011;10165;42.662;23.260;2023-08-01T00:18:05;2.23;;;1.53;;
20008;SDS011;10165;42.662;23.260;2023-08-01T00:20:33;1.67;;;1.57;;
20008;SDS011;10165;42.662;23.260;2023-08-01T00:23:00;1.90;;;1.70;;
20008;SDS011;10165;42.662;23.260;2023-08-01T00:25:28;2.07;;;1.87;;
20008;SDS011;10165;42.662;23.260;2023-08-01T00:27:55;1.90;;;1.70;;
20008;SDS011;10165;42.662;23.260;2023-08-01T00:30:23;2.00;;;1.73;;
20008;SDS011;10165;42.662;23.260;2023-08-01T00:32:50;2.93;;;1.60;;
20008;SDS011;10165;42.662;23.260;2023-08-01T00:35:17;2.70;;;1.93;;
20008;SDS011;10165;42.662;23.260;2023-08-01T00:37:45;2.43;;;1.93;;
20008;SDS011;10165;42.662;23.260;2023-08-01T00:40:12;1.70;;;1.60;;
20008;SDS011;10165;42.662;23.260;2023-08-01T00:42:40;4.27;;;1.63;;
20008;SDS011;10165;42.662;23.260;2023-08-01T00:45:10;2.17;;;1.67;;
20008;SDS011;10165;42.662;23.260;2023-08-01T00:47:37;2.43;;;2.00;;
20008;SDS011;10165;42.662;23.260;2023-08-01T00:50:05;4.17;;;2.00;;
20008;SDS011;10165;42.662;23.260;2023-08-01T00:52:34;3.77;;;1.80;;
20008;SDS011;10165;42.662;23.260;2023-08-01T00:55:01;2.80;;;2.00;;
20008;SDS011;10165;42.662;23.260;2023-08-01T00:57:30;1.80;;;1.60;;
20008;SDS011;10165;42.662;23.260;2023-08-01T00:59:57;2.30;;;2.10;;
20008;SDS011;10165;42.662;23.260;2023-08-01T01:02:25;2.87;;;1.80;;
20008;SDS011;10165;42.662;23.260;2023-08-01T01:04:52;2.80;;;2.10;;
20008;SDS011;10165;42.662;23.260;2023-08-01T01:07:20;2.67;;;1.97;;
20008;SDS011;10165;42.662;23.260;2023-08-01T01:09:50;3.13;;;1.63;;
20008;SDS011;10165;42.662;23.260;2023-08-01T01:12:19;9.07;;;2.13;;
20008;SDS011;10165;42.662;23.260;2023-08-01T01:14:46;2.23;;;2.03;;
20008;SDS011;10165;42.662;23.260;2023-08-01T01:17:17;2.73;;;1.87;;
20008;SDS011;10165;42.662;23.260;2023-08-01T01:19:45;3.17;;;2.10;;
20008;SDS011;10165;42.662;23.260;2023-08-01T01:22:12;2.60;;;1.53;;
20008;SDS011;10165;42.662;23.260;2023-08-01T01:24:41;2.77;;;2.20;;
20008;SDS011;10165;42.662;23.260;2023-08-01T01:27:09;2.23;;;2.00;;
20008;SDS011;10165;42.662;23.260;2023-08-01T01:29:37;3.50;;;1.97;;
20008;SDS011;10165;42.662;23.260;2023-08-01T01:32:07;4.53;;;2.13;;
20008;SDS011;10165;42.662;23.260;2023-08-01T01:34:37;2.70;;;1.80;;
20008;SDS011;10165;42.662;23.260;2023-08-01T01:37:05;4.03;;;1.70;;
20008;SDS011;10165;42.662;23.260;2023-08-01T01:39:33;2.37;;;2.00;;
20008;SDS011;10165;42.662;23.260;2023-08-01T01:42:01;2.97;;;1.90;;
20008;SDS011;10165;42.662;23.260;2023-08-01T01:44:28;2.20;;;1.97;;
20008;SDS011;10165;42.662;23.260;2023-08-01T01:46:56;2.10;;;1.83;;
20008;SDS011;10165;42.662;23.260;2023-08-01T01:49:24;2.67;;;1.90;;
20008;SDS011;10165;42.662;23.260;2023-08-01T01:51:53;3.10;;;2.00;;
20008;SDS011;10165;42.662;23.260;2023-08-01T01:54:23;2.93;;;1.90;;
20008;SDS011;10165;42.662;23.260;2023-08-01T01:56:51;1.60;;;1.50;;
20008;SDS011;10165;42.662;23.260;2023-08-01T01:59:18;3.83;;;1.70;;
20008;SDS011;10165;42.662;23.260;2023-08-01T02:01:46;2.33;;;1.90;;
20008;SDS011;10165;42.662;23.260;2023-08-01T02:04:30;3.23;;;2.23;;
20008;SDS011;10165;42.662;23.260;2023-08-01T02:06:57;1.80;;;1.67;;
20008;SDS011;10165;42.662;23.260;2023-08-01T02:09:25;2.20;;;1.73;;
20008;SDS011;10165;42.662;23.260;2023-08-01T02:11:52;8.63;;;2.10;;
20008;SDS011;10165;42.662;23.260;2023-08-01T02:14:20;6.07;;;1.87;;
20008;SDS011;10165;42.662;23.260;2023-08-01T02:16:47;3.93;;;2.00;;
20008;SDS011;10165;42.662;23.260;2023-08-01T02:19:15;2.60;;;2.00;;
20008;SDS011;10165;42.662;23.260;2023-08-01T02:21:43;2.50;;;2.10;;
20008;SDS011;10165;42.662;23.260;2023-08-01T02:24:10;2.63;;;1.73;;
20008;SDS011;10165;42.662;23.260;2023-08-01T02:26:38;1.90;;;1.70;;
20008;SDS011;10165;42.662;23.260;2023-08-01T02:29:06;4.63;;;1.90;;
20008;SDS011;10165;42.662;23.260;2023-08-01T02:31:33;3.87;;;2.40;;
20008;SDS011;10165;42.662;23.260;2023-08-01T02:34:02;9.87;;;2.07;;
20008;SDS011;10165;42.662;23.260;2023-08-01T02:36:30;3.60;;;2.00;;
20008;SDS011;10165;42.662;23.260;2023-08-01T02:38:57;2.03;;;1.70;;
20008;SDS011;10165;42.662;23.260;2023-08-01T02:41:25;4.33;;;1.60;;
20008;SDS011;10165;42.662;23.260;2023-08-01T02:43:53;4.13;;;1.93;;
20008;SDS011;10165;42.662;23.260;2023-08-01T02:46:21;2.23;;;1.60;;
20008;SDS011;10165;42.662;23.260;2023-08-01T02:48:49;1.77;;;1.63;;
20008;SDS011;10165;42.662;23.260;2023-08-01T02:51:17;2.63;;;2.03;;
20008;SDS011;10165;42.662;23.260;2023-08-01T02:53:44;2.10;;;1.90;;
20008;SDS011;10165;42.662;23.260;2023-08-01T02:56:11;3.20;;;2.03;;
20008;SDS011;10165;42.662;23.260;2023-08-01T02:58:39;1.80;;;1.70;;
20008;SDS011;10165;42.662;23.260;2023-08-01T03:01:06;2.60;;;1.80;;
20008;SDS011;10165;42.662;23.260;2023-08-01T03:03:39;1.90;;;1.67;;
20008;SDS011;10165;42.662;23.260;2023-08-01T03:06:06;2.67;;;1.90;;
20008;SDS011;10165;42.662;23.260;2023-08-01T03:08:34;2.10;;;1.90;;
20008;SDS011;10165;42.662;23.260;2023-08-01T03:11:02;2.20;;;1.90;;
20008;SDS011;10165;42.662;23.260;2023-08-01T03:13:29;4.33;;;2.30;;
20008;SDS011;10165;42.662;23.260;2023-08-01T03:15:57;2.10;;;1.80;;
20008;SDS011;10165;42.662;23.260;2023-08-01T03:18:24;2.50;;;2.10;;
20008;SDS011;10165;42.662;23.260;2023-08-01T03:20:52;2.90;;;1.80;;
20008;SDS011;10165;42.662;23.260;2023-08-01T03:23:19;3.23;;;1.83;;
20008;SDS011;10165;42.662;23.260;2023-08-01T03:25:47;2.60;;;2.00;;
20008;SDS011;10165;42.662;23.260;2023-08-01T03:28:15;3.47;;;2.00;;
20008;SDS011;10165;42.662;23.260;2023-08-01T03:30:43;3.10;;;2.20;;
20008;SDS011;10165;42.662;23.260;2023-08-01T03:33:11;2.50;;;2.10;;
20008;SDS011;10165;42.662;23.260;2023-08-01T03:35:38;2.97;;;1.70;;
20008;SDS011;10165;42.662;23.260;2023-08-01T03:38:05;3.93;;;1.90;;
20008;SDS011;10165;42.662;23.260;2023-08-01T03:40:33;1.70;;;1.60;;
20008;SDS011;10165;42.662;23.260;2023-08-01T03:43:00;2.57;;;1.70;;
20008;SDS011;10165;42.662;23.260;2023-08-01T03:45:28;2.20;;;1.63;;
20008;SDS011;10165;42.662;23.260;2023-08-01T03:47:56;2.87;;;1.87;;
20008;SDS011;10165;42.662;23.260;2023-08-01T03:50:24;2.67;;;1.77;;
20008;SDS011;10165;42.662;23.260;2023-08-01T03:52:52;3.23;;;1.93;;
20008;SDS011;10165;42.662;23.260;2023-08-01T03:55:20;2.47;;;1.67;;
20008;SDS011;10165;42.662;23.260;2023-08-01T03:57:48;3.87;;;1.90;;
20008;SDS011;10165;42.662;23.260;2023-08-01T04:00:41;6.27;;;2.00;;
20008;SDS011;10165;42.662;23.260;2023-08-01T04:03:11;2.10;;;1.90;;
20008;SDS011;10165;42.662;23.260;2023-08-01T04:05:39;2.90;;;2.10;;
20008;SDS011;10165;42.662;23.260;2023-08-01T04:08:07;3.97;;;1.93;;
20008;SDS011;10165;42.662;23.260;2023-08-01T04:10:36;2.50;;;1.80;;
20008;SDS011;10165;42.662;23.260;2023-08-01T04:13:04;2.13;;;1.93;;
20008;SDS011;10165;42.662;23.260;2023-08-01T04:15:32;2.20;;;2.00;;
20008;SDS011;10165;42.662;23.260;2023-08-01T04:18:00;3.63;;;2.10;;
20008;SDS011;10165;42.662;23.260;2023-08-01T04:20:28;2.27;;;2.07;;
20008;SDS011;10165;42.662;23.260;2023-08-01T04:22:56;2.23;;;2.03;;
20008;SDS011;10165;42.662;23.260;2023-08-01T04:25:25;3.00;;;2.10;;
20008;SDS011;10165;42.662;23.260;2023-08-01T04:27:54;2.87;;;2.27;;
20008;SDS011;10165;42.662;23.260;2023-08-01T04:30:22;3.03;;;2.47;;
20008;SDS011;10165;42.662;23.260;2023-08-01T04:32:50;3.73;;;2.60;;
20008;SDS011;10165;42.662;23.260;2023-08-01T04:35:17;4.63;;;2.60;;
20008;SDS011;10165;42.662;23.260;2023-08-01T04:37:44;4.17;;;2.50;;
20008;SDS011;10165;42.662;23.260;2023-08-01T04:40:12;3.40;;;2.50;;
20008;SDS011;10165;42.662;23.260;2023-08-01T04:42:40;5.03;;;2.73;;
20008;SDS011;10165;42.662;23.260;2023-08-01T04:45:07;5.70;;;2.90;;
20008;SDS011;10165;42.662;23.260;2023-08-01T04:47:36;5.40;;;2.97;;
20008;SDS011;10165;42.662;23.260;2023-08-01T04:50:03;7.60;;;2.50;;
20008;SDS011;10165;42.662;23.260;2023-08-01T04:52:31;6.40;;;2.60;;
20008;SDS011;10165;42.662;23.260;2023-08-01T04:54:59;4.80;;;2.77;;
20008;SDS011;10165;42.662;23.260;2023-08-01T04:57:27;5.63;;;2.60;;
20008;SDS011;10165;42.662;23.260;2023-08-01T04:59:55;5.03;;;3.00;;
20008;SDS011;10165;42.662;23.260;2023-08-01T05:02:22;5.93;;;3.00;;
20008;SDS011;10165;42.662;23.260;2023-08-01T05:04:51;5.83;;;3.10;;
20008;SDS011;10165;42.662;23.260;2023-08-01T05:07:19;8.00;;;2.97;;
20008;SDS011;10165;42.662;23.260;2023-08-01T05:09:46;6.50;;;3.07;;
20008;SDS011;10165;42.662;23.260;2023-08-01T05:12:14;7.33;;;2.57;;
20008;SDS011;10165;42.662;23.260;2023-08-01T05:14:42;3.80;;;2.70;;
20008;SDS011;10165;42.662;23.260;2023-08-01T05:17:12;6.20;;;3.00;;
20008;SDS011;10165;42.662;23.260;2023-08-01T05:19:40;7.07;;;3.37;;
20008;SDS011;10165;42.662;23.260;2023-08-01T05:22:07;3.83;;;2.73;;
20008;SDS011;10165;42.662;23.260;2023-08-01T05:24:35;6.07;;;3.13;;
20008;SDS011;10165;42.662;23.260;2023-08-01T05:27:02;3.70;;;2.97;;
20008;SDS011;10165;42.662;23.260;2023-08-01T05:36:59;8.63;;;3.17;;
20008;SDS011;10165;42.662;23.260;2023-08-01T05:39:29;4.80;;;2.83;;
20008;SDS011;10165;42.662;23.260;2023-08-01T05:41:57;7.93;;;3.40;;
20008;SDS011;10165;42.662;23.260;2023-08-01T05:44:25;4.57;;;2.93;;
20008;SDS011;10165;42.662;23.260;2023-08-01T05:46:54;8.10;;;3.03;;
20008;SDS011;10165;42.662;23.260;2023-08-01T05:49:22;15.57;;;3.43;;
20008;SDS011;10165;42.662;23.260;2023-08-01T05:51:50;3.70;;;2.87;;
20008;SDS011;10165;42.662;23.260;2023-08-01T05:54:19;3.53;;;2.90;;
20008;SDS011;10165;42.662;23.260;2023-08-01T05:56:47;9.63;;;2.73;;
20008;SDS011;10165;42.662;23.260;2023-08-01T05:59:15;3.60;;;2.50;;
20008;SDS011;10165;42.662;23.260;2023-08-01T06:09:28;4.43;;;2.17;;
20008;SDS011;10165;42.662;23.260;2023-08-01T06:11:57;4.73;;;2.53;;
20008;SDS011;10165;42.662;23.260;2023-08-01T06:14:32;6.10;;;2.70;;
20008;SDS011;10165;42.662;23.260;2023-08-01T06:25:21;3.63;;;2.47;;
20008;SDS011;10165;42.662;23.260;2023-08-01T06:27:49;3.53;;;2.00;;
20008;SDS011;10165;42.662;23.260;2023-08-01T06:30:19;4.73;;;2.17;;
20008;SDS011;10165;42.662;23.260;2023-08-01T06:32:47;3.80;;;2.23;;
20008;SDS011;10165;42.662;23.260;2023-08-01T06:35:15;10.43;;;2.07;;
20008;SDS011;10165;42.662;23.260;2023-08-01T06:37:43;3.17;;;1.83;;
20008;SDS011;10165;42.662;23.260;2023-08-01T06:40:11;2.87;;;2.00;;
20008;SDS011;10165;42.662;23.260;2023-08-01T06:42:40;4.70;;;2.13;;
20008;SDS011;10165;42.662;23.260;2023-08-01T06:45:08;5.00;;;2.90;;
20008;SDS011;10165;42.662;23.260;2023-08-01T06:47:37;2.33;;;2.13;;
20008;SDS011;10165;42.662;23.260;2023-08-01T06:50:05;3.37;;;2.53;;
20008;SDS011;10165;42.662;23.260;2023-08-01T06:52:33;3.43;;;2.10;;
20008;SDS011;10165;42.662;23.260;2023-08-01T06:55:01;4.07;;;1.90;;
20008;SDS011;10165;42.662;23.260;2023-08-01T06:57:30;8.37;;;2.20;;
20008;SDS011;10165;42.662;23.260;2023-08-01T07:00:01;2.87;;;2.00;;
20008;SDS011;10165;42.662;23.260;2023-08-01T07:02:30;2.77;;;2.07;;
20008;SDS011;10165;42.662;23.260;2023-08-01T07:04:58;5.03;;;2.00;;
20008;SDS011;10165;42.662;23.260;2023-08-01T07:07:27;7.70;;;2.40;;
20008;SDS011;10165;42.662;23.260;2023-08-01T07:09:55;7.47;;;2.40;;
20008;SDS011;10165;42.662;23.260;2023-08-01T07:12:26;3.93;;;2.43;;
20008;SDS011;10165;42.662;23.260;2023-08-01T07:15:31;4.83;;;2.43;;
20008;SDS011;10165;42.662;23.260;2023-08-01T07:17:59;5.77;;;2.60;;
20008;SDS011;10165;42.662;23.260;2023-08-01T07:20:28;3.57;;;2.57;;
20008;SDS011;10165;42.662;23.260;2023-08-01T07:22:57;4.17;;;2.37;;
20008;SDS011;10165;42.662;23.260;2023-08-01T07:25:25;3.67;;;2.33;;
20008;SDS011;10165;42.662;23.260;2023-08-01T07:27:53;2.60;;;2.30;;
20008;SDS011;10165;42.662;23.260;2023-08-01T07:30:21;2.20;;;2.00;;
20008;SDS011;10165;42.662;23.260;2023-08-01T07:32:50;3.77;;;2.50;;
20008;SDS011;10165;42.662;23.260;2023-08-01T07:35:18;7.27;;;2.20;;
20008;SDS011;10165;42.662;23.260;2023-08-01T07:37:47;3.00;;;2.43;;
20008;SDS011;10165;42.662;23.260;2023-08-01T07:40:15;4.90;;;2.07;;
20008;SDS011;10165;42.662;23.260;2023-08-01T07:42:44;3.97;;;2.60;;
20008;SDS011;10165;42.662;23.260;2023-08-01T07:45:13;2.90;;;2.57;;
20008;SDS011;10165;42.662;23.260;2023-08-01T07:47:41;4.23;;;1.90;;
20008;SDS011;10165;42.662;23.260;2023-08-01T07:50:10;2.80;;;2.20;;
20008;SDS011;10165;42.662;23.260;2023-08-01T07:52:41;4.80;;;2.33;;
20008;SDS011;10165;42.662;23.260;2023-08-01T07:55:09;9.43;;;2.70;;
20008;SDS011;10165;42.662;23.260;2023-08-01T07:57:38;4.03;;;2.40;;
20008;SDS011;10165;42.662;23.260;2023-08-01T08:00:07;4.70;;;2.43;;
20008;SDS011;10165;42.662;23.260;2023-08-01T08:02:36;3.50;;;2.20;;
20008;SDS011;10165;42.662;23.260;2023-08-01T08:05:05;3.50;;;2.17;;
20008;SDS011;10165;42.662;23.260;2023-08-01T08:07:33;4.77;;;2.60;;
20008;SDS011;10165;42.662;23.260;2023-08-01T08:10:20;3.43;;;2.30;;
20008;SDS011;10165;42.662;23.260;2023-08-01T08:12:49;3.33;;;2.57;;
20008;SDS011;10165;42.662;23.260;2023-08-01T08:15:17;5.60;;;2.40;;
20008;SDS011;10165;42.662;23.260;2023-08-01T08:17:49;4.83;;;2.80;;
20008;SDS011;10165;42.662;23.260;2023-08-01T08:20:18;4.40;;;2.40;;
20008;SDS011;10165;42.662;23.260;2023-08-01T08:22:46;2.50;;;2.30;;
20008;SDS011;10165;42.662;23.260;2023-08-01T08:25:14;4.20;;;2.27;;
20008;SDS011;10165;42.662;23.260;2023-08-01T08:28:00;6.53;;;2.40;;
20008;SDS011;10165;42.662;23.260;2023-08-01T08:30:28;5.87;;;2.53;;
20008;SDS011;10165;42.662;23.260;2023-08-01T08:32:57;3.67;;;2.37;;
20008;SDS011;10165;42.662;23.260;2023-08-01T08:35:28;4.90;;;2.83;;
20008;SDS011;10165;42.662;23.260;2023-08-01T08:37:59;5.93;;;2.50;;
20008;SDS011;10165;42.662;23.260;2023-08-01T08:40:29;3.93;;;2.53;;
20008;SDS011;10165;42.662;23.260;2023-08-01T08:43:01;4.67;;;2.83;;
20008;SDS011;10165;42.662;23.260;2023-08-01T08:45:36;5.57;;;3.17;;
20008;SDS011;10165;42.662;23.260;2023-08-01T08:48:09;4.80;;;2.80;;
20008;SDS011;10165;42.662;23.260;2023-08-01T08:50:43;2.57;;;2.37;;
20008;SDS011;10165;42.662;23.260;2023-08-01T08:53:14;4.97;;;2.97;;
20008;SDS011;10165;42.662;23.260;2023-08-01T08:55:43;6.33;;;3.07;;
20008;SDS011;10165;42.662;23.260;2023-08-01T08:58:11;5.40;;;2.83;;
20008;SDS011;10165;42.662;23.260;2023-08-01T09:00:41;5.33;;;2.77;;
20008;SDS011;10165;42.662;23.260;2023-08-01T09:03:10;7.93;;;2.80;;
20008;SDS011;10165;42.662;23.260;2023-08-01T09:05:40;9.37;;;2.87;;
20008;SDS011;10165;42.662;23.260;2023-08-01T09:08:18;3.57;;;2.57;;
20008;SDS011;10165;42.662;23.260;2023-08-01T09:10:47;3.87;;;2.57;;
20008;SDS011;10165;42.662;23.260;2023-08-01T09:13:15;3.90;;;2.60;;
20008;SDS011;10165;42.662;23.260;2023-08-01T09:15:49;2.80;;;2.50;;
20008;SDS011;10165;42.662;23.260;2023-08-01T09:18:19;3.10;;;2.73;;
20008;SDS011;10165;42.662;23.260;2023-08-01T09:20:48;3.57;;;2.40;;
20008;SDS011;10165;42.662;23.260;2023-08-01T09:23:17;4.07;;;2.97;;
20008;SDS011;10165;42.662;23.260;2023-08-01T09:25:47;4.20;;;3.10;;
20008;SDS011;10165;42.662;23.260;2023-08-01T09:28:15;4.20;;;2.63;;
20008;SDS011;10165;42.662;23.260;2023-08-01T09:30:53;4.03;;;3.00;;
20008;SDS011;10165;42.662;23.260;2023-08-01T09:33:24;6.47;;;3.20;;
20008;SDS011;10165;42.662;23.260;2023-08-01T09:35:53;3.57;;;3.20;;
20008;SDS011;10165;42.662;23.260;2023-08-01T09:38:21;4.47;;;3.10;;
20008;SDS011;10165;42.662;23.260;2023-08-01T09:40:50;3.10;;;2.70;;
20008;SDS011;10165;42.662;23.260;2023-08-01T09:43:19;5.97;;;3.30;;
20008;SDS011;10165;42.662;23.260;2023-08-01T09:45:51;5.97;;;3.10;;
20008;SDS011;10165;42.662;23.260;2023-08-01T09:48:22;5.40;;;2.97;;
20008;SDS011;10165;42.662;23.260;2023-08-01T09:51:08;7.63;;;3.20;;
20008;SDS011;10165;42.662;23.260;2023-08-01T09:53:57;4.10;;;3.07;;
20008;SDS011;10165;42.662;23.260;2023-08-01T09:56:25;4.10;;;2.83;;
20008;SDS011;10165;42.662;23.260;2023-08-01T09:58:55;6.53;;;2.93;;
20008;SDS011;10165;42.662;23.260;2023-08-01T10:01:24;5.23;;;3.03;;
20008;SDS011;10165;42.662;23.260;2023-08-01T10:03:55;3.40;;;3.10;;
20008;SDS011;10165;42.662;23.260;2023-08-01T10:06:28;3.73;;;3.07;;
20008;SDS011;10165;42.662;23.260;2023-08-01T10:08:59;6.80;;;2.90;;
20008;SDS011;10165;42.662;23.260;2023-08-01T10:11:30;4.17;;;3.00;;
20008;SDS011;10165;42.662;23.260;2023-08-01T10:14:02;4.33;;;2.70;;
20008;SDS011;10165;42.662;23.260;2023-08-01T10:16:32;6.63;;;3.40;;
20008;SDS011;10165;42.662;23.260;2023-08-01T10:19:02;3.87;;;3.23;;
20008;SDS011;10165;42.662;23.260;2023-08-01T10:21:31;3.37;;;3.07;;
20008;SDS011;10165;42.662;23.260;2023-08-01T10:24:00;5.23;;;2.80;;
20008;SDS011;10165;42.662;23.260;2023-08-01T10:26:31;4.43;;;2.80;;
20008;SDS011;10165;42.662;23.260;2023-08-01T10:29:00;14.07;;;3.30;;
20008;SDS011;10165;42.662;23.260;2023-08-01T10:31:29;4.13;;;3.10;;
20008;SDS011;10165;42.662;23.260;2023-08-01T10:34:12;4.97;;;2.97;;
20008;SDS011;10165;42.662;23.260;2023-08-01T10:36:41;3.47;;;2.80;;
20008;SDS011;10165;42.662;23.260;2023-08-01T10:39:20;3.87;;;2.70;;
20008;SDS011;10165;42.662;23.260;2023-08-01T10:42:02;5.07;;;3.23;;
20008;SDS011;10165;42.662;23.260;2023-08-01T10:44:32;3.90;;;2.60;;
20008;SDS011;10165;42.662;23.260;2023-08-01T10:47:03;8.40;;;2.80;;
20008;SDS011;10165;42.662;23.260;2023-08-01T10:49:42;3.73;;;2.43;;
20008;SDS011;10165;42.662;23.260;2023-08-01T10:52:24;3.47;;;2.30;;
20008;SDS011;10165;42.662;23.260;2023-08-01T10:57:28;2.17;;;1.98;;
20008;SDS011;10165;42.662;23.260;2023-08-01T11:00:02;2.28;;;2.08;;
20008;SDS011;10165;42.662;23.260;2023-08-01T11:02:36;2.58;;;2.25;;
20008;SDS011;10165;42.662;23.260;2023-08-01T11:05:06;2.35;;;2.10;;
20008;SDS011;10165;42.662;23.260;2023-08-01T11:07:34;3.08;;;2.10;;
20008;SDS011;10165;42.662;23.260;2023-08-01T11:10:04;2.90;;;2.33;;
20008;SDS011;10165;42.662;23.260;2023-08-01T11:12:37;1.92;;;1.73;;
20008;SDS011;10165;42.662;23.260;2023-08-01T11:15:07;3.50;;;2.15;;
20008;SDS011;10165;42.662;23.260;2023-08-01T11:17:40;3.25;;;2.20;;
20008;SDS011;10165;42.662;23.260;2023-08-01T11:20:10;2.42;;;2.17;;
20008;SDS011;10165;42.662;23.260;2023-08-01T11:22:49;2.58;;;2.10;;
20008;SDS011;10165;42.662;23.260;2023-08-01T11:25:19;3.15;;;2.47;;
20008;SDS011;10165;42.662;23.260;2023-08-01T11:28:05;2.33;;;1.92;;
20008;SDS011;10165;42.662;23.260;2023-08-01T11:30:37;2.05;;;1.85;;
20008;SDS011;10165;42.662;23.260;2023-08-01T11:33:15;3.65;;;1.80;;
20008;SDS011;10165;42.662;23.260;2023-08-01T11:35:46;2.30;;;2.10;;
20008;SDS011;10165;42.662;23.260;2023-08-01T11:38:30;2.05;;;1.75;;
20008;SDS011;10165;42.662;23.260;2023-08-01T11:41:01;4.18;;;1.92;;
20008;SDS011;10165;42.662;23.260;2023-08-01T11:43:41;3.22;;;2.00;;
20008;SDS011;10165;42.662;23.260;2023-08-01T11:46:10;2.80;;;2.30;;
20008;SDS011;10165;42.662;23.260;2023-08-01T11:48:44;2.88;;;2.40;;
20008;SDS011;10165;42.662;23.260;2023-08-01T11:51:20;4.90;;;2.10;;
20008;SDS011;10165;42.662;23.260;2023-08-01T11:54:03;2.35;;;2.10;;
20008;SDS011;10165;42.662;23.260;2023-08-01T11:56:31;2.60;;;2.00;;
20008;SDS011;10165;42.662;23.260;2023-08-01T11:59:00;5.30;;;2.45;;
20008;SDS011;10165;42.662;23.260;2023-08-01T12:01:39;2.33;;;2.13;;
20008;SDS011;10165;42.662;23.260;2023-08-01T12:04:25;3.85;;;2.17;;
20008;SDS011;10165;42.662;23.260;2023-08-01T12:06:55;4.15;;;2.83;;
20008;SDS011;10165;42.662;23.260;2023-08-01T12:09:23;2.22;;;1.70;;
20008;SDS011;10165;42.662;23.260;2023-08-01T12:11:59;2.42;;;1.95;;
20008;SDS011;10165;42.662;23.260;2023-08-01T12:14:28;2.15;;;1.60;;
20008;SDS011;10165;42.662;23.260;2023-08-01T12:16:56;2.40;;;1.83;;
20008;SDS011;10165;42.662;23.260;2023-08-01T12:19:24;10.73;;;2.40;;
20008;SDS011;10165;42.662;23.260;2023-08-01T12:21:52;5.18;;;2.10;;
20008;SDS011;10165;42.662;23.260;2023-08-01T12:24:20;6.47;;;1.90;;
20008;SDS011;10165;42.662;23.260;2023-08-01T12:26:48;9.10;;;2.40;;
20008;SDS011;10165;42.662;23.260;2023-08-01T12:29:17;6.82;;;1.95;;
20008;SDS011;10165;42.662;23.260;2023-08-01T12:31:45;2.10;;;1.90;;
20008;SDS011;10165;42.662;23.260;2023-08-01T12:34:13;2.83;;;1.65;;
20008;SDS011;10165;42.662;23.260;2023-08-01T12:36:42;4.18;;;1.92;;
20008;SDS011;10165;42.662;23.260;2023-08-01T12:39:11;3.53;;;1.73;;
20008;SDS011;10165;42.662;23.260;2023-08-01T12:41:45;2.35;;;1.85;;
20008;SDS011;10165;42.662;23.260;2023-08-01T12:44:13;3.10;;;1.90;;
20008;SDS011;10165;42.662;23.260;2023-08-01T12:46:44;2.25;;;1.67;;
20008;SDS011;10165;42.662;23.260;2023-08-01T12:49:12;4.72;;;2.05;;
20008;SDS011;10165;42.662;23.260;2023-08-01T12:51:40;2.10;;;1.90;;
20008;SDS011;10165;42.662;23.260;2023-08-01T12:54:09;2.15;;;1.92;;
20008;SDS011;10165;42.662;23.260;2023-08-01T12:56:39;10.10;;;2.15;;
20008;SDS011;10165;42.662;23.260;2023-08-01T12:59:08;2.03;;;1.88;;
20008;SDS011;10165;42.662;23.260;2023-08-01T13:01:36;2.17;;;1.80;;
20008;SDS011;10165;42.662;23.260;2023-08-01T13:04:04;7.10;;;2.03;;
20008;SDS011;10165;42.662;23.260;2023-08-01T13:06:33;2.33;;;1.95;;
20008;SDS011;10165;42.662;23.260;2023-08-01T13:09:03;1.98;;;1.77;;
20008;SDS011;10165;42.662;23.260;2023-08-01T13:11:34;3.85;;;1.95;;
20008;SDS011;10165;42.662;23.260;2023-08-01T13:14:04;1.92;;;1.80;;
20008;SDS011;10165;42.662;23.260;2023-08-01T13:16:32;4.03;;;2.00;;
20008;SDS011;10165;42.662;23.260;2023-08-01T13:19:00;2.10;;;1.85;;
20008;SDS011;10165;42.662;23.260;2023-08-01T13:21:28;1.80;;;1.60;;
20008;SDS011;10165;42.662;23.260;2023-08-01T13:23:57;1.75;;;1.65;;
20008;SDS011;10165;42.662;23.260;2023-08-01T13:26:25;5.90;;;2.20;;
20008;SDS011;10165;42.662;23.260;2023-08-01T13:28:57;3.25;;;1.92;;
20008;SDS011;10165;42.662;23.260;2023-08-01T13:31:26;1.80;;;1.70;;
20008;SDS011;10165;42.662;23.260;2023-08-01T13:33:55;3.15;;;1.55;;
20008;SDS011;10165;42.662;23.260;2023-08-01T13:36:24;2.30;;;2.03;;
20008;SDS011;10165;42.662;23.260;2023-08-01T13:38:52;3.15;;;1.90;;
20008;SDS011;10165;42.662;23.260;2023-08-01T13:41:20;1.88;;;1.70;;
20008;SDS011;10165;42.662;23.260;2023-08-01T13:43:48;4.63;;;2.00;;
20008;SDS011;10165;42.662;23.260;2023-08-01T13:46:18;5.15;;;1.92;;
20008;SDS011;10165;42.662;23.260;2023-08-01T13:48:52;2.75;;;2.20;;
20008;SDS011;10165;42.662;23.260;2023-08-01T13:51:21;2.20;;;2.00;;
20008;SDS011;10165;42.662;23.260;2023-08-01T13:54:03;1.92;;;1.73;;
20008;SDS011;10165;42.662;23.260;2023-08-01T13:56:31;2.15;;;1.90;;
20008;SDS011;10165;42.662;23.260;2023-08-01T13:59:03;2.38;;;2.00;;
20008;SDS011;10165;42.662;23.260;2023-08-01T14:01:31;2.20;;;2.00;;
20008;SDS011;10165;42.662;23.260;2023-08-01T14:03:59;3.05;;;2.22;;
20008;SDS011;10165;42.662;23.260;2023-08-01T14:06:27;2.42;;;2.10;;
20008;SDS011;10165;42.662;23.260;2023-08-01T14:08:56;2.30;;;2.10;;
20008;SDS011;10165;42.662;23.260;2023-08-01T14:11:25;2.50;;;1.90;;
20008;SDS011;10165;42.662;23.260;2023-08-01T14:13:53;4.82;;;1.95;;
20008;SDS011;10165;42.662;23.260;2023-08-01T14:16:27;2.00;;;1.90;;
20008;SDS011;10165;42.662;23.260;2023-08-01T14:18:57;3.00;;;2.10;;
20008;SDS011;10165;42.662;23.260;2023-08-01T14:21:26;2.60;;;2.00;;
20008;SDS011;10165;42.662;23.260;2023-08-01T14:23:53;2.38;;;1.90;;
20008;SDS011;10165;42.662;23.260;2023-08-01T14:26:22;4.50;;;1.95;;
20008;SDS011;10165;42.662;23.260;2023-08-01T14:28:50;2.38;;;2.17;;
20008;SDS011;10165;42.662;23.260;2023-08-01T14:31:18;2.90;;;2.20;;
20008;SDS011;10165;42.662;23.260;2023-08-01T14:33:46;2.42;;;2.20;;
20008;SDS011;10165;42.662;23.260;2023-08-01T14:36:13;3.53;;;2.35;;
20008;SDS011;10165;42.662;23.260;2023-08-01T14:38:41;2.45;;;2.10;;
20008;SDS011;10165;42.662;23.260;2023-08-01T14:41:09;2.70;;;1.80;;
20008;SDS011;10165;42.662;23.260;2023-08-01T14:43:56;4.13;;;2.03;;
20008;SDS011;10165;42.662;23.260;2023-08-01T14:46:24;2.40;;;2.20;;
20008;SDS011;10165;42.662;23.260;2023-08-01T14:48:52;5.07;;;2.50;;
20008;SDS011;10165;42.662;23.260;2023-08-01T14:51:20;2.97;;;2.03;;
20008;SDS011;10165;42.662;23.260;2023-08-01T14:53:48;3.67;;;2.55;;
20008;SDS011;10165;42.662;23.260;2023-08-01T14:56:22;2.67;;;2.00;;
20008;SDS011;10165;42.662;23.260;2023-08-01T14:59:44;3.30;;;2.15;;
20008;SDS011;10165;42.662;23.260;2023-08-01T15:02:12;2.20;;;2.00;;
20008;SDS011;10165;42.662;23.260;2023-08-01T15:04:40;2.65;;;2.40;;
20008;SDS011;10165;42.662;23.260;2023-08-01T15:07:08;2.40;;;2.17;;
20008;SDS011;10165;42.662;23.260;2023-08-01T15:09:36;4.47;;;3.10;;
20008;SDS011;10165;42.662;23.260;2023-08-01T15:12:04;2.83;;;2.38;;
20008;SDS011;10165;42.662;23.260;2023-08-01T15:14:31;2.58;;;2.38;;